createdAt,value
2019-05-18T00:00:11.255Z,100581.66
2019-05-18T00:02:40.769Z,100585.25
2019-05-18T00:05:10.516Z,100576.93
2019-05-18T00:07:40.352Z,100584.91
2019-05-18T00:10:10.514Z,100582.80
2019-05-18T00:12:40.013Z,100585.63
2019-05-18T00:15:10.886Z,100582.69
2019-05-18T00:17:40.325Z,100581.22
2019-05-18T00:20:10.088Z,100583.51
2019-05-18T00:22:43.246Z,100587.74
2019-05-18T00:25:13.021Z,100584.91
2019-05-18T00:27:42.463Z,100587.64
2019-05-18T00:30:14.089Z,100583.22
2019-05-18T00:32:43.540Z,100579.48
2019-05-18T00:35:13.033Z,100583.67
2019-05-18T00:37:42.473Z,100571.97
2019-05-18T00:40:12.283Z,100575.59
2019-05-18T00:42:41.778Z,100577.50
2019-05-18T00:45:11.487Z,100578.81
2019-05-18T00:47:42.179Z,100579.47
2019-05-18T00:50:12.314Z,100582.08
2019-05-18T00:52:42.146Z,100573.98
2019-05-18T00:55:12.163Z,100572.02
2019-05-18T00:57:41.984Z,100565.98
2019-05-18T01:00:12.657Z,100566.95
2019-05-18T01:02:42.107Z,100569.41
2019-05-18T01:05:11.792Z,100563.53
2019-05-18T01:07:41.283Z,100566.09
2019-05-18T01:10:10.969Z,100565.44
2019-05-18T01:12:40.460Z,100568.64
2019-05-18T01:15:11.213Z,100571.23
2019-05-18T01:17:40.624Z,100561.63
2019-05-18T01:20:10.508Z,100570.20
2019-05-18T01:22:39.940Z,100569.42
2019-05-18T01:25:09.972Z,100563.38
2019-05-18T01:27:39.490Z,100562.03
2019-05-18T01:30:10.520Z,100568.49
2019-05-18T01:32:39.943Z,100568.22
2019-05-18T01:35:09.890Z,100567.78
2019-05-18T01:37:39.310Z,100562.58
2019-05-18T01:40:09.662Z,100563.22
2019-05-18T01:42:43.772Z,100561.94
2019-05-18T01:45:17.231Z,100564.22
2019-05-18T01:47:45.227Z,100569.15
2019-05-18T01:50:14.782Z,100569.11
2019-05-18T01:52:44.228Z,100574.38
2019-05-18T01:55:14.073Z,100566.82
2019-05-18T01:57:43.517Z,100565.51
2019-05-18T02:00:14.543Z,100563.23
2019-05-18T02:02:43.970Z,100565.85
2019-05-18T02:05:14.008Z,100566.01
2019-05-18T02:07:43.809Z,100571.11
2019-05-18T02:10:13.570Z,100562.97
2019-05-18T02:12:42.998Z,100557.09
2019-05-18T02:15:13.117Z,100561.16
2019-05-18T02:17:42.551Z,100561.77
2019-05-18T02:20:13.284Z,100567.54
2019-05-18T02:22:42.725Z,100563.13
2019-05-18T02:25:12.491Z,100555.68
2019-05-18T02:27:41.943Z,100551.67
2019-05-18T02:30:17.039Z,100549.23
2019-05-18T02:32:45.305Z,100543.94
2019-05-18T02:35:14.974Z,100538.52
2019-05-18T02:37:44.708Z,100537.09
2019-05-18T02:40:14.318Z,100542.98
2019-05-18T02:43:03.067Z,100533.56
2019-05-18T02:45:32.526Z,100539.00
2019-05-18T02:48:02.271Z,100541.89
2019-05-18T02:50:31.694Z,100536.93
2019-05-18T02:53:01.484Z,100537.42
2019-05-18T02:55:30.971Z,100532.98
2019-05-18T02:58:00.477Z,100539.16
2019-05-18T03:00:29.978Z,100533.41
2019-05-18T03:02:59.490Z,100542.48
2019-05-18T03:05:29.299Z,100549.95
2019-05-18T03:07:58.709Z,100549.56
2019-05-18T03:10:28.158Z,100543.39
2019-05-18T03:12:57.593Z,100543.70
2019-05-18T03:15:27.167Z,100547.77
2019-05-18T03:17:56.605Z,100544.64
2019-05-18T03:20:26.103Z,100536.80
2019-05-18T03:22:55.626Z,100535.13
2019-05-18T03:25:25.047Z,100532.13
2019-05-18T03:27:54.860Z,100533.42
2019-05-18T03:30:24.300Z,100532.77
2019-05-18T03:32:53.724Z,100530.25
2019-05-18T03:35:23.221Z,100536.88
2019-05-18T03:37:52.641Z,100530.51
2019-05-18T03:40:22.146Z,100533.36
2019-05-18T03:42:51.581Z,100533.32
2019-05-18T03:45:21.084Z,100538.19
2019-05-18T03:47:50.660Z,100536.67
2019-05-18T03:50:20.074Z,100538.34
2019-05-18T03:52:49.521Z,100543.17
2019-05-18T03:55:19.329Z,100540.00
2019-05-18T03:57:48.749Z,100537.02
2019-05-18T04:00:19.226Z,100537.92
2019-05-18T04:02:48.648Z,100539.14
2019-05-18T04:05:18.100Z,100531.08
2019-05-18T04:07:47.524Z,100531.84
2019-05-18T04:10:26.726Z,100532.66
2019-05-18T04:12:56.144Z,100539.42
2019-05-18T04:15:25.625Z,100538.13
2019-05-18T04:17:55.082Z,100538.95
2019-05-18T04:20:24.485Z,100536.23
2019-05-18T04:22:53.905Z,100536.22
2019-05-18T04:25:23.348Z,100543.59
2019-05-18T04:27:52.776Z,100546.30
2019-05-18T04:30:22.350Z,100554.97
2019-05-18T04:32:51.759Z,100550.34
2019-05-18T04:35:21.225Z,100554.34
2019-05-18T04:37:51.093Z,100559.06
2019-05-18T04:40:20.653Z,100552.05
2019-05-18T04:42:50.090Z,100554.33
2019-05-18T04:45:19.581Z,100548.45
2019-05-18T04:47:49.115Z,100544.64
2019-05-18T04:50:18.746Z,100556.94
2019-05-18T04:52:48.209Z,100555.47
2019-05-18T04:55:17.770Z,100555.23
2019-05-18T04:57:47.247Z,100558.33
2019-05-18T05:00:16.787Z,100563.44
2019-05-18T05:02:46.203Z,100554.80
2019-05-18T05:05:15.774Z,100551.63
2019-05-18T05:07:45.262Z,100557.97
2019-05-18T05:10:14.928Z,100552.53
2019-05-18T05:12:44.462Z,100556.78
2019-05-18T05:15:15.934Z,100557.26
2019-05-18T05:17:45.386Z,100563.44
2019-05-18T05:20:19.735Z,100567.16
2019-05-18T05:22:47.223Z,100565.86
2019-05-18T05:25:16.661Z,100566.92
2019-05-18T05:27:46.088Z,100563.95
2019-05-18T05:30:15.912Z,100570.55
2019-05-18T05:32:45.340Z,100574.85
2019-05-18T05:35:15.432Z,100575.07
2019-05-18T05:37:44.912Z,100577.64
2019-05-18T05:40:14.667Z,100577.77
2019-05-18T05:42:44.186Z,100569.73
2019-05-18T05:45:13.960Z,100567.73
2019-05-18T05:47:43.428Z,100570.72
2019-05-18T05:50:13.041Z,100570.38
2019-05-18T05:52:42.496Z,100562.80
2019-05-18T05:55:12.267Z,100569.10
2019-05-18T05:57:42.011Z,100569.36
2019-05-18T06:00:11.979Z,100570.64
2019-05-18T06:02:41.404Z,100576.84
2019-05-18T06:05:11.158Z,100571.16
2019-05-18T06:07:40.732Z,100568.02
2019-05-18T06:10:10.869Z,100573.31
2019-05-18T06:12:40.394Z,100572.34
2019-05-18T06:15:10.823Z,100575.48
2019-05-18T06:17:40.241Z,100576.09
2019-05-18T06:20:10.503Z,100573.87
2019-05-18T06:22:40.231Z,100576.47
2019-05-18T06:25:09.773Z,100577.85
2019-05-18T06:27:39.329Z,100578.24
2019-05-18T06:30:09.983Z,100578.63
2019-05-18T06:32:39.476Z,100576.69
2019-05-18T06:35:09.061Z,100576.22
2019-05-18T06:37:38.506Z,100569.86
2019-05-18T06:40:09.312Z,100571.69
2019-05-18T06:42:38.806Z,100571.89
2019-05-18T06:45:09.681Z,100565.02
2019-05-18T06:47:39.190Z,100564.38
2019-05-18T06:50:12.394Z,100560.98
2019-05-18T06:52:41.574Z,100561.78
2019-05-18T06:55:11.379Z,100562.94
2019-05-18T06:57:41.226Z,100562.28
2019-05-18T07:00:15.453Z,100569.13
2019-05-18T07:02:45.465Z,100564.54
2019-05-18T07:05:15.134Z,100562.80
2019-05-18T07:07:44.584Z,100558.33
2019-05-18T07:10:14.359Z,100555.43
2019-05-18T07:12:43.797Z,100558.30
2019-05-18T07:15:14.014Z,100564.41
2019-05-18T07:17:43.513Z,100566.64
2019-05-18T07:20:15.668Z,100564.70
2019-05-18T07:22:45.092Z,100564.34
2019-05-18T07:25:14.684Z,100568.41
2019-05-18T07:27:44.110Z,100568.42
2019-05-18T07:30:15.439Z,100567.38
2019-05-18T07:32:44.950Z,100563.97
2019-05-18T07:35:16.175Z,100565.27
2019-05-18T07:37:45.691Z,100561.27
2019-05-18T07:40:15.648Z,100565.20
2019-05-18T07:42:45.068Z,100568.73
2019-05-18T07:45:15.330Z,100563.95
2019-05-18T07:47:44.775Z,100564.58
2019-05-18T07:50:16.832Z,100564.81
2019-05-18T07:52:46.262Z,100570.58
2019-05-18T07:55:15.765Z,100571.88
2019-05-18T07:57:45.570Z,100572.87
2019-05-18T08:00:15.609Z,100575.54
2019-05-18T08:02:45.123Z,100577.93
2019-05-18T08:05:14.766Z,100577.20
2019-05-18T08:07:44.224Z,100578.42
2019-05-18T08:10:14.170Z,100579.50
2019-05-18T08:12:43.913Z,100577.08
2019-05-18T08:15:15.527Z,100582.87
2019-05-18T08:17:44.965Z,100578.47
2019-05-18T08:20:14.549Z,100582.05
2019-05-18T08:22:43.960Z,100584.12
2019-05-18T08:25:13.434Z,100583.70
2019-05-18T08:27:43.267Z,100585.30
2019-05-18T08:30:12.748Z,100587.11
2019-05-18T08:32:42.202Z,100583.43
2019-05-18T08:35:11.737Z,100582.58
2019-05-18T08:37:41.145Z,100582.13
2019-05-18T08:40:11.973Z,100585.41
2019-05-18T08:42:41.382Z,100582.05
2019-05-18T08:45:11.814Z,100581.72
2019-05-18T08:47:41.416Z,100580.88
2019-05-18T08:50:10.991Z,100577.81
2019-05-18T08:52:40.430Z,100580.25
2019-05-18T08:55:10.344Z,100574.32
2019-05-18T08:57:40.159Z,100570.59
2019-05-18T09:00:11.472Z,100575.16
2019-05-18T09:02:40.894Z,100575.86
2019-05-18T09:05:10.920Z,100573.20
2019-05-18T09:07:40.313Z,100574.27
2019-05-18T09:10:10.652Z,100571.72
2019-05-18T09:12:40.080Z,100571.79
2019-05-18T09:15:09.812Z,100570.99
2019-05-18T09:17:39.228Z,100563.19
2019-05-18T09:20:12.993Z,100561.63
2019-05-18T09:22:42.793Z,100569.17
2019-05-18T09:25:14.645Z,100564.72
2019-05-18T09:27:44.076Z,100571.75
2019-05-18T09:30:14.971Z,100573.41
2019-05-18T09:32:44.399Z,100574.23
2019-05-18T09:35:14.021Z,100581.30
2019-05-18T09:37:45.984Z,100582.06
2019-05-18T09:40:15.767Z,100583.92
2019-05-18T09:42:45.508Z,100579.28
2019-05-18T09:45:17.152Z,100580.77
2019-05-18T09:47:46.631Z,100586.79
2019-05-18T09:50:16.262Z,100589.37
2019-05-18T09:52:46.583Z,100597.67
2019-05-18T09:55:18.421Z,100593.78
2019-05-18T09:57:47.864Z,100597.36
2019-05-18T10:00:18.337Z,100591.53
2019-05-18T10:02:47.783Z,100591.95
2019-05-18T10:05:18.078Z,100593.04
2019-05-18T10:07:47.538Z,100590.88
2019-05-18T10:10:17.708Z,100593.80
2019-05-18T10:12:47.381Z,100592.94
2019-05-18T10:15:17.545Z,100596.80
2019-05-18T10:17:46.947Z,100598.34
2019-05-18T10:20:16.905Z,100592.76
2019-05-18T10:22:58.936Z,100584.70
2019-05-18T10:25:18.137Z,100583.35
2019-05-18T10:27:49.278Z,100578.41
2019-05-18T10:30:18.918Z,100576.05
2019-05-18T10:32:48.337Z,100577.11
2019-05-18T10:35:17.827Z,100571.89
2019-05-18T10:37:47.524Z,100578.26
2019-05-18T10:40:17.722Z,100577.80
2019-05-18T10:42:47.134Z,100571.25
2019-05-18T10:45:17.042Z,100568.43
2019-05-18T10:47:46.563Z,100564.75
2019-05-18T10:50:16.607Z,100566.80
2019-05-18T10:52:46.055Z,100569.06
2019-05-18T10:55:15.747Z,100570.54
2019-05-18T10:57:45.189Z,100569.77
2019-05-18T11:00:15.837Z,100567.84
2019-05-18T11:02:45.563Z,100568.75
2019-05-18T11:05:15.702Z,100564.21
2019-05-18T11:07:45.214Z,100563.10
2019-05-18T11:10:14.971Z,100562.37
2019-05-18T11:12:44.409Z,100556.25
2019-05-18T11:15:14.465Z,100556.50
2019-05-18T11:17:44.014Z,100556.46
2019-05-18T11:20:14.453Z,100556.16
2019-05-18T11:22:44.219Z,100550.73
2019-05-18T11:25:15.126Z,100546.42
2019-05-18T11:27:44.583Z,100545.44
2019-05-18T11:30:16.556Z,100543.38
2019-05-18T11:32:46.012Z,100545.40
2019-05-18T11:35:17.494Z,100542.24
2019-05-18T11:37:47.022Z,100548.16
2019-05-18T11:40:17.317Z,100546.80
2019-05-18T11:42:46.781Z,100545.16
2019-05-18T11:45:18.037Z,100544.45
2019-05-18T11:47:47.572Z,100545.19
2019-05-18T11:50:18.072Z,100544.47
2019-05-18T11:52:47.635Z,100543.39
2019-05-18T11:55:19.000Z,100541.58
2019-05-18T11:57:48.544Z,100546.52
2019-05-18T12:00:20.209Z,100537.84
2019-05-18T12:02:49.675Z,100541.16
2019-05-18T12:05:19.267Z,100536.72
2019-05-18T12:07:48.764Z,100536.86
2019-05-18T12:10:18.832Z,100540.44
2019-05-18T12:12:48.514Z,100527.66
2019-05-18T12:15:19.032Z,100525.32
2019-05-18T12:17:48.478Z,100524.39
2019-05-18T12:20:19.630Z,100527.46
2019-05-18T12:22:49.071Z,100516.95
2019-05-18T12:25:18.659Z,100519.81
2019-05-18T12:28:07.565Z,100523.36
2019-05-18T12:30:37.417Z,100531.78
2019-05-18T12:33:06.952Z,100527.09
2019-05-18T12:35:36.461Z,100523.88
2019-05-18T12:38:06.062Z,100525.02
2019-05-18T12:40:37.344Z,100527.39
2019-05-18T12:43:06.905Z,100531.56
2019-05-18T12:45:36.313Z,100534.73
2019-05-18T12:48:05.849Z,100525.50
2019-05-18T12:50:35.785Z,100530.84
2019-05-18T12:53:05.291Z,100531.17
2019-05-18T12:55:34.735Z,100530.88
2019-05-18T12:58:04.194Z,100523.78
2019-05-18T13:00:33.847Z,100524.06
2019-05-18T13:03:03.351Z,100535.12
2019-05-18T13:05:32.900Z,100528.77
2019-05-18T13:08:02.369Z,100529.02
2019-05-18T13:10:32.253Z,100523.98
2019-05-18T13:13:01.808Z,100522.23
2019-05-18T13:15:31.350Z,100528.30
2019-05-18T13:18:00.850Z,100529.90
2019-05-18T13:20:30.381Z,100534.23
2019-05-18T13:22:59.838Z,100538.81
2019-05-18T13:25:29.314Z,100528.16
2019-05-18T13:27:58.926Z,100531.95
2019-05-18T13:30:30.603Z,100531.06
2019-05-18T13:33:00.185Z,100532.63
2019-05-18T13:35:32.424Z,100529.53
2019-05-18T13:38:01.847Z,100533.41
2019-05-18T13:40:31.671Z,100532.07
2019-05-18T13:43:01.698Z,100531.83
2019-05-18T13:45:31.147Z,100534.27
2019-05-18T13:48:00.564Z,100533.22
2019-05-18T13:50:30.579Z,100533.77
2019-05-18T13:53:00.026Z,100527.23
2019-05-18T13:55:29.487Z,100522.98
2019-05-18T13:57:58.913Z,100520.11
2019-05-18T14:00:28.349Z,100522.38
2019-05-18T14:02:57.790Z,100519.23
2019-05-18T14:05:27.262Z,100520.48
2019-05-18T14:07:56.677Z,100516.30
2019-05-18T14:10:26.216Z,100516.52
2019-05-18T14:12:55.657Z,100518.23
2019-05-18T14:15:25.173Z,100511.63
2019-05-18T14:17:54.987Z,100510.87
2019-05-18T14:20:26.306Z,100511.33
2019-05-18T14:22:55.669Z,100515.50
2019-05-18T14:25:25.690Z,100511.84
2019-05-18T14:27:55.484Z,100520.20
2019-05-18T14:30:25.751Z,100512.66
2019-05-18T14:32:55.197Z,100513.60
2019-05-18T14:35:24.710Z,100511.08
2019-05-18T14:37:54.426Z,100517.23
2019-05-18T14:40:25.725Z,100517.92
2019-05-18T14:42:55.170Z,100516.50
2019-05-18T14:45:24.652Z,100518.45
2019-05-18T14:47:54.177Z,100519.19
2019-05-18T14:50:23.788Z,100521.73
2019-05-18T14:52:53.295Z,100520.88
2019-05-18T14:55:33.313Z,100520.61
2019-05-18T14:57:53.949Z,100518.52
2019-05-18T15:00:23.479Z,100517.54
2019-05-18T15:02:52.884Z,100510.84
2019-05-18T15:05:22.468Z,100507.54
2019-05-18T15:07:51.985Z,100502.12
2019-05-18T15:10:21.656Z,100505.95
2019-05-18T15:12:51.187Z,100507.13
2019-05-18T15:15:26.396Z,100501.88
2019-05-18T15:17:56.001Z,100502.80
2019-05-18T15:20:25.727Z,100500.52
2019-05-18T15:22:55.140Z,100497.86
2019-05-18T15:25:24.700Z,100492.02
2019-05-18T15:27:54.546Z,100486.64
2019-05-18T15:30:24.454Z,100489.52
2019-05-18T15:32:54.000Z,100491.41
2019-05-18T15:35:23.542Z,100489.11
2019-05-18T15:37:56.837Z,100484.27
2019-05-18T15:40:26.293Z,100482.97
2019-05-18T15:42:55.760Z,100485.98
2019-05-18T15:45:25.301Z,100488.55
2019-05-18T15:47:54.728Z,100491.41
2019-05-18T15:50:24.370Z,100487.86
2019-05-18T15:52:53.904Z,100498.77
2019-05-18T15:55:25.352Z,100499.49
2019-05-18T15:57:54.788Z,100509.50
2019-05-18T16:00:24.317Z,100496.27
2019-05-18T16:02:53.763Z,100501.27
2019-05-18T16:05:23.252Z,100504.30
2019-05-18T16:07:52.718Z,100502.50
2019-05-18T16:10:22.680Z,100498.54
2019-05-18T16:12:52.106Z,100495.94
2019-05-18T16:15:21.692Z,100497.70
2019-05-18T16:17:51.163Z,100497.05
2019-05-18T16:20:21.564Z,100494.31
2019-05-18T16:22:51.088Z,100499.45
2019-05-18T16:25:20.840Z,100503.53
2019-05-18T16:27:50.295Z,100497.90
2019-05-18T16:30:20.076Z,100502.81
2019-05-18T16:32:49.662Z,100510.15
2019-05-18T16:35:19.324Z,100504.02
2019-05-18T16:37:48.892Z,100510.28
2019-05-18T16:40:18.750Z,100510.75
2019-05-18T16:42:48.207Z,100515.73
2019-05-18T16:45:18.063Z,100508.83
2019-05-18T16:47:47.474Z,100507.77
2019-05-18T16:50:18.080Z,100512.44
2019-05-18T16:52:47.503Z,100509.48
2019-05-18T16:55:17.838Z,100508.64
2019-05-18T16:57:47.270Z,100506.40
2019-05-18T17:00:17.295Z,100507.50
2019-05-18T17:02:46.819Z,100504.47
2019-05-18T17:05:16.999Z,100503.89
2019-05-18T17:07:46.498Z,100512.41
2019-05-18T17:10:16.473Z,100509.22
2019-05-18T17:12:45.981Z,100510.86
2019-05-18T17:15:16.068Z,100511.44
2019-05-18T17:17:45.516Z,100520.02
2019-05-18T17:20:15.410Z,100521.48
2019-05-18T17:22:44.865Z,100520.13
2019-05-18T17:25:14.582Z,100529.00
2019-05-18T17:27:44.022Z,100523.30
2019-05-18T17:30:13.712Z,100524.08
2019-05-18T17:32:43.145Z,100529.61
2019-05-18T17:35:13.086Z,100530.51
2019-05-18T17:37:42.537Z,100532.91
2019-05-18T17:40:12.479Z,100537.47
2019-05-18T17:42:41.904Z,100545.49
2019-05-18T17:45:12.565Z,100549.37
2019-05-18T17:47:42.003Z,100555.94
2019-05-18T17:50:12.128Z,100557.01
2019-05-18T17:52:41.790Z,100566.04
2019-05-18T17:55:11.716Z,100569.72
2019-05-18T17:57:41.244Z,100571.44
2019-05-18T18:00:14.186Z,100574.03
2019-05-18T18:02:43.558Z,100574.44
2019-05-18T18:05:13.609Z,100574.35
2019-05-18T18:07:43.036Z,100578.09
2019-05-18T18:10:14.021Z,100578.55
2019-05-18T18:12:43.505Z,100590.11
2019-05-18T18:15:13.881Z,100583.69
2019-05-18T18:17:43.296Z,100585.94
2019-05-18T18:20:13.841Z,100594.67
2019-05-18T18:22:43.756Z,100598.25
2019-05-18T18:25:13.507Z,100596.81
2019-05-18T18:27:42.973Z,100599.25
2019-05-18T18:30:12.882Z,100603.52
2019-05-18T18:32:42.858Z,100607.20
2019-05-18T18:35:12.528Z,100608.25
2019-05-18T18:37:42.035Z,100611.09
2019-05-18T18:40:12.082Z,100613.84
2019-05-18T18:42:41.501Z,100622.38
2019-05-18T18:45:11.617Z,100621.44
2019-05-18T18:47:41.046Z,100614.48
2019-05-18T18:50:10.912Z,100623.39
2019-05-18T18:52:40.810Z,100617.39
2019-05-18T18:55:11.163Z,100620.07
2019-05-18T18:57:42.236Z,100615.53
2019-05-18T19:00:12.798Z,100619.73
2019-05-18T19:02:42.603Z,100621.84
2019-05-18T19:05:12.975Z,100625.57
2019-05-18T19:07:44.047Z,100628.05
2019-05-18T19:10:13.836Z,100627.59
2019-05-18T19:12:43.404Z,100630.73
2019-05-18T19:15:21.892Z,100631.00
2019-05-18T19:17:51.342Z,100632.44
2019-05-18T19:20:20.830Z,100640.11
2019-05-18T19:22:50.411Z,100644.25
2019-05-18T19:25:20.094Z,100647.97
2019-05-18T19:27:54.954Z,100658.66
2019-05-18T19:30:21.143Z,100657.91
2019-05-18T19:32:50.552Z,100661.00
2019-05-18T19:35:19.996Z,100663.22
2019-05-18T19:37:49.439Z,100663.41
2019-05-18T19:40:19.312Z,100665.77
2019-05-18T19:42:48.739Z,100672.27
2019-05-18T19:45:18.391Z,100680.81
2019-05-18T19:47:47.840Z,100678.77
2019-05-18T19:50:17.714Z,100691.30
2019-05-18T19:52:47.260Z,100685.29
2019-05-18T19:55:16.766Z,100688.61
2019-05-18T19:57:46.191Z,100689.20
2019-05-18T20:00:16.605Z,100692.89
2019-05-18T20:02:46.109Z,100692.38
2019-05-18T20:05:15.917Z,100698.46
2019-05-18T20:07:45.753Z,100697.17
2019-05-18T20:10:15.403Z,100696.03
2019-05-18T20:12:44.902Z,100695.27
2019-05-18T20:15:16.739Z,100695.63
2019-05-18T20:17:46.204Z,100699.12
2019-05-18T20:20:16.747Z,100698.83
2019-05-18T20:22:46.361Z,100692.75
2019-05-18T20:25:16.103Z,100703.14
2019-05-18T20:27:45.536Z,100711.87
2019-05-18T20:30:15.346Z,100708.10
2019-05-18T20:32:46.826Z,100706.46
2019-05-18T20:35:16.927Z,100714.25
2019-05-18T20:37:46.361Z,100702.91
2019-05-18T20:40:16.323Z,100705.05
2019-05-18T20:42:45.846Z,100706.06
2019-05-18T20:45:15.508Z,100706.27
2019-05-18T20:47:45.326Z,100707.60
2019-05-18T20:50:16.718Z,100705.30
2019-05-18T20:52:46.492Z,100704.82
2019-05-18T20:55:16.056Z,100702.38
2019-05-18T20:57:45.481Z,100708.14
2019-05-18T21:00:15.474Z,100707.34
2019-05-18T21:02:44.932Z,100715.73
2019-05-18T21:05:15.799Z,100713.94
2019-05-18T21:07:45.216Z,100716.75
2019-05-18T21:10:14.936Z,100716.09
2019-05-18T21:12:44.366Z,100714.80
2019-05-18T21:15:14.643Z,100717.78
2019-05-18T21:17:44.159Z,100721.24
2019-05-18T21:20:13.996Z,100715.83
2019-05-18T21:22:43.457Z,100716.97
2019-05-18T21:25:13.039Z,100718.30
2019-05-18T21:27:42.472Z,100715.79
2019-05-18T21:30:12.331Z,100716.79
2019-05-18T21:32:41.852Z,100718.78
2019-05-18T21:35:11.384Z,100719.92
2019-05-18T21:37:40.836Z,100716.99
2019-05-18T21:40:11.267Z,100711.91
2019-05-18T21:42:40.772Z,100715.19
2019-05-18T21:45:10.399Z,100718.64
2019-05-18T21:47:40.227Z,100707.80
2019-05-18T21:50:10.003Z,100705.48
2019-05-18T21:52:41.972Z,100709.61
2019-05-18T21:55:11.099Z,100708.13
2019-05-18T21:57:40.605Z,100702.72
2019-05-18T22:00:10.443Z,100703.68
2019-05-18T22:02:39.917Z,100700.25
2019-05-18T22:05:09.513Z,100701.23
2019-05-18T22:07:38.963Z,100701.23
2019-05-18T22:10:24.425Z,100697.14
2019-05-18T22:12:40.697Z,100698.92
2019-05-18T22:15:11.116Z,100701.23
2019-05-18T22:17:58.342Z,100698.92
2019-05-18T22:20:27.847Z,100699.25
2019-05-18T22:22:57.269Z,100699.73
2019-05-18T22:25:26.715Z,100695.16
2019-05-18T22:27:56.140Z,100695.95
2019-05-18T22:30:25.588Z,100690.87
2019-05-18T22:32:55.004Z,100697.13
2019-05-18T22:35:24.827Z,100693.83
2019-05-18T22:37:54.314Z,100702.19
2019-05-18T22:40:25.373Z,100696.11
2019-05-18T22:42:54.822Z,100699.39
2019-05-18T22:45:27.853Z,100697.43
2019-05-18T22:48:00.485Z,100693.97
2019-05-18T22:50:29.886Z,100695.12
2019-05-18T22:52:59.389Z,100701.98
2019-05-18T22:55:28.892Z,100690.30
2019-05-18T22:57:58.314Z,100698.67
2019-05-18T23:00:37.403Z,100695.55
2019-05-18T23:03:11.328Z,100694.69
2019-05-18T23:05:47.169Z,100688.60
2019-05-18T23:08:18.498Z,100685.83
2019-05-18T23:10:59.505Z,100689.26
2019-05-18T23:13:31.779Z,100691.37
2019-05-18T23:16:01.198Z,100685.45
2019-05-18T23:18:30.650Z,100686.40
2019-05-18T23:21:00.092Z,100684.28
2019-05-18T23:23:29.530Z,100678.69
2019-05-18T23:25:58.954Z,100681.94
2019-05-18T23:28:28.380Z,100684.60
2019-05-18T23:30:57.904Z,100681.78
2019-05-18T23:33:27.395Z,100686.69
2019-05-18T23:35:56.820Z,100681.13
2019-05-18T23:38:26.256Z,100683.72
2019-05-18T23:40:55.985Z,100684.55
2019-05-18T23:43:25.417Z,100680.45
2019-05-18T23:45:54.840Z,100683.23
2019-05-18T23:48:24.285Z,100683.36
2019-05-18T23:50:53.727Z,100686.27
2019-05-18T23:53:23.295Z,100679.23
2019-05-18T23:55:52.760Z,100683.12
2019-05-18T23:58:22.191Z,100685.89
